createdAt,value
2022-09-07T00:01:54.112Z,18.69
2022-09-07T00:04:20.771Z,18.62
2022-09-07T00:06:47.481Z,18.64
2022-09-07T00:09:14.247Z,18.56
2022-09-07T00:11:40.964Z,18.36
2022-09-07T00:14:07.756Z,18.28
2022-09-07T00:16:34.623Z,18.25
2022-09-07T00:19:03.754Z,18.11
2022-09-07T00:21:31.329Z,18.03
2022-09-07T00:23:58.183Z,17.98
2022-09-07T00:26:29.152Z,17.89
2022-09-07T00:29:03.916Z,17.75
2022-09-07T00:31:31.744Z,17.70
2022-09-07T00:34:00.489Z,17.51
2022-09-07T00:36:27.612Z,17.60
2022-09-07T00:38:54.119Z,17.39
2022-09-07T00:41:22.263Z,17.35
2022-09-07T00:43:57.278Z,17.28
2022-09-07T00:46:25.808Z,17.29
2022-09-07T00:48:58.442Z,17.27
2022-09-07T00:51:28.033Z,17.20
2022-09-07T00:54:02.911Z,17.10
2022-09-07T00:56:33.105Z,17.13
2022-09-07T00:59:00.318Z,17.12
2022-09-07T01:01:27.549Z,17.06
2022-09-07T01:03:56.931Z,17.14
2022-09-07T01:06:28.709Z,17.23
2022-09-07T01:08:56.420Z,17.17
2022-09-07T01:11:23.617Z,17.15
2022-09-07T01:13:52.019Z,17.14
2022-09-07T01:16:52.842Z,17.16
2022-09-07T01:20:03.766Z,17.16
2022-09-07T01:22:48.063Z,17.04
2022-09-07T01:25:52.159Z,17.13
2022-09-07T01:28:28.494Z,16.99
2022-09-07T01:31:34.145Z,16.94
2022-09-07T01:34:15.486Z,16.95
2022-09-07T01:37:23.680Z,16.94
2022-09-07T01:39:57.977Z,16.92
2022-09-07T01:42:32.593Z,16.90
2022-09-07T01:45:04.601Z,16.95
2022-09-07T01:47:41.261Z,16.99
2022-09-07T01:50:16.705Z,16.96
2022-09-07T01:52:53.041Z,16.95
2022-09-07T01:55:31.818Z,16.98
2022-09-07T01:58:13.694Z,16.92
2022-09-07T02:00:45.722Z,16.85
2022-09-07T02:03:18.378Z,16.75
2022-09-07T02:05:48.024Z,16.72
2022-09-07T02:08:27.603Z,16.69
2022-09-07T02:11:04.401Z,16.55
2022-09-07T02:13:37.465Z,16.49
2022-09-07T02:16:31.135Z,16.45
2022-09-07T02:19:05.167Z,16.40
2022-09-07T02:21:36.528Z,16.39
2022-09-07T02:24:12.013Z,16.36
2022-09-07T02:26:41.271Z,16.25
2022-09-07T02:29:08.342Z,16.22
2022-09-07T02:31:34.903Z,16.17
2022-09-07T02:34:01.951Z,16.11
2022-09-07T02:36:35.207Z,16.02
2022-09-07T02:39:01.933Z,15.99
2022-09-07T02:41:37.797Z,15.96
2022-09-07T02:44:34.680Z,15.93
2022-09-07T02:47:10.462Z,15.88
2022-09-07T02:50:01.989Z,15.87
2022-09-07T02:53:05.797Z,15.79
2022-09-07T02:56:06.125Z,15.72
2022-09-07T02:58:36.908Z,15.68
2022-09-07T03:01:25.178Z,15.64
2022-09-07T03:04:07.268Z,15.67
2022-09-07T03:07:03.016Z,15.68
2022-09-07T03:09:37.204Z,15.61
2022-09-07T03:12:05.291Z,15.56
2022-09-07T03:14:34.359Z,15.57
2022-09-07T03:17:02.214Z,15.51
2022-09-07T03:19:28.664Z,15.47
2022-09-07T03:21:55.366Z,15.38
2022-09-07T03:24:21.855Z,15.36
2022-09-07T03:26:49.816Z,15.35
2022-09-07T03:29:16.396Z,15.35
2022-09-07T03:31:43.389Z,15.35
2022-09-07T03:34:10.061Z,15.35
2022-09-07T03:36:36.644Z,15.31
2022-09-07T03:39:04.549Z,15.27
2022-09-07T03:41:31.237Z,15.18
2022-09-07T03:44:02.706Z,15.10
2022-09-07T03:46:29.413Z,15.01
2022-09-07T03:48:55.973Z,15.00
2022-09-07T03:51:22.798Z,15.03
2022-09-07T03:53:49.344Z,15.04
2022-09-07T03:56:21.648Z,14.96
2022-09-07T03:58:49.694Z,14.99
2022-09-07T04:01:19.099Z,15.04
2022-09-07T04:03:46.747Z,15.00
2022-09-07T04:06:13.802Z,14.98
2022-09-07T04:08:41.163Z,14.95
2022-09-07T04:11:10.766Z,14.85
2022-09-07T04:13:37.536Z,14.80
2022-09-07T04:16:14.272Z,14.79
2022-09-07T04:18:41.531Z,14.79
2022-09-07T04:21:08.789Z,14.82
2022-09-07T04:23:38.202Z,14.85
2022-09-07T04:26:05.234Z,14.84
2022-09-07T04:28:32.222Z,14.79
2022-09-07T04:31:03.146Z,14.79
2022-09-07T04:33:33.133Z,14.76
2022-09-07T04:36:01.257Z,14.74
2022-09-07T04:38:28.806Z,14.69
2022-09-07T04:41:09.347Z,14.64
2022-09-07T04:43:37.721Z,14.59
2022-09-07T04:46:06.199Z,14.54
2022-09-07T04:48:33.261Z,14.55
2022-09-07T04:51:07.786Z,14.56
2022-09-07T04:53:35.896Z,14.54
2022-09-07T04:56:03.434Z,14.56
2022-09-07T04:58:30.452Z,14.54
2022-09-07T05:01:06.073Z,14.57
2022-09-07T05:03:36.177Z,14.57
2022-09-07T05:06:04.513Z,14.44
2022-09-07T05:08:35.539Z,14.44
2022-09-07T05:11:02.136Z,14.51
2022-09-07T05:13:29.524Z,14.45
2022-09-07T05:15:56.112Z,14.47
2022-09-07T05:18:22.588Z,14.50
2022-09-07T05:20:49.143Z,14.52
2022-09-07T05:23:16.652Z,14.49
2022-09-07T05:25:47.047Z,14.50
2022-09-07T05:28:17.292Z,14.56
2022-09-07T05:36:20.873Z,14.70
2022-09-07T05:38:47.630Z,14.69
2022-09-07T05:41:17.173Z,14.66
2022-09-07T05:46:31.175Z,14.67
2022-09-07T05:48:57.950Z,14.69
2022-09-07T05:51:24.489Z,14.85
2022-09-07T05:53:51.333Z,15.05
2022-09-07T05:56:17.849Z,15.28
2022-09-07T05:58:48.825Z,15.35
2022-09-07T06:01:16.191Z,15.45
2022-09-07T06:03:43.282Z,15.53
2022-09-07T06:06:13.352Z,15.57
2022-09-07T06:08:45.207Z,15.70
2022-09-07T06:11:15.550Z,15.83
2022-09-07T06:13:42.954Z,16.02
2022-09-07T06:16:12.430Z,16.03
2022-09-07T06:18:41.422Z,16.10
2022-09-07T06:21:11.182Z,16.15
2022-09-07T06:23:39.865Z,16.24
2022-09-07T06:26:07.344Z,16.25
2022-09-07T06:28:36.137Z,16.33
2022-09-07T06:31:04.741Z,16.37
2022-09-07T06:33:31.908Z,16.39
2022-09-07T06:36:00.927Z,16.46
2022-09-07T06:38:33.668Z,16.59
2022-09-07T06:43:54.320Z,16.59
2022-09-07T06:49:07.774Z,16.77
2022-09-07T06:51:35.473Z,16.92
2022-09-07T06:56:48.601Z,17.13
2022-09-07T06:59:16.295Z,17.28
2022-09-07T07:01:42.845Z,17.23
2022-09-07T07:04:09.662Z,17.31
2022-09-07T07:06:38.081Z,17.34
2022-09-07T07:09:06.577Z,17.42
2022-09-07T07:11:33.347Z,17.51
2022-09-07T07:14:00.060Z,17.43
2022-09-07T07:16:26.702Z,17.41
2022-09-07T07:18:56.657Z,17.55
2022-09-07T07:21:23.854Z,17.65
2022-09-07T07:23:52.165Z,17.86
2022-09-07T07:26:21.029Z,17.90
2022-09-07T07:31:26.759Z,17.76
2022-09-07T07:33:53.805Z,17.76
2022-09-07T07:36:22.846Z,17.76
2022-09-07T07:44:17.272Z,18.01
2022-09-07T07:46:46.688Z,18.08
2022-09-07T07:49:13.413Z,18.14
2022-09-07T07:54:26.333Z,18.39
2022-09-07T07:56:52.917Z,18.43
2022-09-07T07:59:19.320Z,18.60
2022-09-07T08:01:45.883Z,18.76
2022-09-07T08:04:12.464Z,18.82
2022-09-07T08:06:42.496Z,18.95
2022-09-07T08:09:09.214Z,19.01
2022-09-07T08:11:35.647Z,19.18
2022-09-07T08:14:04.779Z,19.26
2022-09-07T08:16:31.277Z,19.27
2022-09-07T08:18:58.260Z,19.30
2022-09-07T08:21:25.228Z,19.45
2022-09-07T08:23:51.673Z,19.52
2022-09-07T08:26:18.174Z,19.60
2022-09-07T08:28:45.467Z,19.73
2022-09-07T08:31:14.688Z,19.83
2022-09-07T08:33:41.624Z,20.01
2022-09-07T08:36:19.205Z,20.17
2022-09-07T08:38:46.250Z,20.34
2022-09-07T08:41:46.788Z,20.41
2022-09-07T08:44:20.584Z,20.49
2022-09-07T08:46:54.303Z,20.50
2022-09-07T08:49:35.749Z,20.63
2022-09-07T08:52:08.184Z,20.81
2022-09-07T08:54:36.221Z,20.92
2022-09-07T09:00:13.895Z,21.07
2022-09-07T09:02:44.348Z,20.95
2022-09-07T09:06:00.626Z,21.00
2022-09-07T09:09:04.782Z,21.00
2022-09-07T09:12:06.681Z,21.08
2022-09-07T09:14:47.988Z,21.11
2022-09-07T09:17:35.529Z,21.19
2022-09-07T09:20:08.119Z,21.24
2022-09-07T09:22:35.124Z,21.25
2022-09-07T09:25:15.705Z,21.46
2022-09-07T09:27:42.315Z,21.60
2022-09-07T09:30:14.153Z,21.76
2022-09-07T09:32:43.215Z,21.86
2022-09-07T09:35:34.321Z,22.03
2022-09-07T09:38:03.459Z,22.13
2022-09-07T09:40:35.042Z,22.13
2022-09-07T09:43:17.605Z,22.34
2022-09-07T09:48:37.304Z,22.27
2022-09-07T09:53:58.326Z,22.14
2022-09-07T09:56:43.218Z,21.92
2022-09-07T10:05:28.695Z,21.86
2022-09-07T10:07:56.694Z,22.01
2022-09-07T10:10:23.465Z,22.05
2022-09-07T10:12:54.160Z,22.12
2022-09-07T10:15:40.857Z,22.21
2022-09-07T10:18:18.626Z,22.51
2022-09-07T10:20:45.329Z,22.38
2022-09-07T10:23:23.849Z,22.52
2022-09-07T10:25:51.005Z,22.45
2022-09-07T10:28:21.288Z,22.63
2022-09-07T10:31:00.976Z,22.79
2022-09-07T10:36:41.620Z,22.89
2022-09-07T10:39:14.574Z,22.77
2022-09-07T10:41:43.813Z,22.83
2022-09-07T10:44:22.403Z,22.86
2022-09-07T10:47:19.498Z,23.28
2022-09-07T10:50:24.248Z,23.42
2022-09-07T10:53:43.851Z,23.46
2022-09-07T10:56:15.276Z,23.40
2022-09-07T10:59:08.405Z,23.39
2022-09-07T11:01:34.875Z,23.17
2022-09-07T11:04:13.382Z,23.04
2022-09-07T11:06:41.543Z,22.99
2022-09-07T11:09:29.083Z,22.97
2022-09-07T11:12:27.914Z,23.02
2022-09-07T11:15:21.001Z,22.95
2022-09-07T11:18:03.193Z,22.96
2022-09-07T11:20:35.572Z,22.92
2022-09-07T11:23:28.489Z,22.83
2022-09-07T11:26:14.138Z,22.78
2022-09-07T11:29:29.051Z,22.77
2022-09-07T11:31:48.980Z,22.80
2022-09-07T11:34:26.129Z,22.91
2022-09-07T11:37:02.737Z,22.97
2022-09-07T11:39:35.441Z,23.04
2022-09-07T11:45:20.116Z,23.40
2022-09-07T11:47:54.144Z,23.19
2022-09-07T11:50:24.353Z,23.04
2022-09-07T11:53:06.105Z,22.95
2022-09-07T11:55:38.207Z,23.11
2022-09-07T11:58:27.755Z,23.13
2022-09-07T12:01:01.079Z,23.13
2022-09-07T12:03:45.775Z,23.08
2022-09-07T12:06:41.596Z,22.97
2022-09-07T12:09:34.235Z,22.94
2022-09-07T12:12:49.293Z,22.85
2022-09-07T12:15:36.028Z,22.91
2022-09-07T12:18:05.511Z,22.93
2022-09-07T12:20:44.335Z,22.91
2022-09-07T12:23:16.861Z,23.14
2022-09-07T12:25:45.711Z,23.44
2022-09-07T12:28:35.814Z,23.90
2022-09-07T12:31:05.253Z,24.08
2022-09-07T12:33:35.513Z,24.19
2022-09-07T12:36:23.164Z,24.45
2022-09-07T12:39:21.182Z,24.90
2022-09-07T12:42:31.753Z,25.08
2022-09-07T12:44:37.948Z,25.33
2022-09-07T12:47:10.555Z,25.49
2022-09-07T12:49:45.947Z,25.43
2022-09-07T12:52:21.538Z,25.49
2022-09-07T12:55:26.021Z,25.34
2022-09-07T12:57:55.196Z,24.94
2022-09-07T13:00:56.450Z,24.70
2022-09-07T13:03:51.374Z,24.38
2022-09-07T13:09:41.001Z,24.17
2022-09-07T13:15:32.339Z,24.93
2022-09-07T13:17:59.454Z,24.77
2022-09-07T13:20:30.309Z,24.88
2022-09-07T13:23:08.829Z,24.64
2022-09-07T13:25:42.770Z,24.87
2022-09-07T13:28:16.550Z,24.77
2022-09-07T13:30:53.407Z,24.89
2022-09-07T13:33:43.883Z,25.04
2022-09-07T13:36:36.134Z,25.28
2022-09-07T13:39:09.022Z,25.27
2022-09-07T13:41:42.175Z,25.14
2022-09-07T13:44:25.016Z,25.29
2022-09-07T13:47:10.943Z,25.37
2022-09-07T13:49:56.023Z,25.60
2022-09-07T13:52:27.555Z,25.51
2022-09-07T13:54:59.976Z,25.35
2022-09-07T13:57:46.770Z,25.31
2022-09-07T14:00:15.385Z,25.62
2022-09-07T14:02:42.155Z,25.90
2022-09-07T14:05:11.769Z,26.30
2022-09-07T14:07:45.816Z,26.49
2022-09-07T14:10:19.589Z,26.54
2022-09-07T14:12:51.934Z,26.48
2022-09-07T14:15:27.338Z,26.47
2022-09-07T14:18:04.734Z,26.45
2022-09-07T14:20:32.417Z,26.32
2022-09-07T14:22:59.408Z,26.33
2022-09-07T14:25:26.432Z,25.93
2022-09-07T14:27:53.120Z,25.73
2022-09-07T14:30:19.428Z,25.58
2022-09-07T14:32:52.607Z,25.58
2022-09-07T14:35:22.173Z,25.86
2022-09-07T14:37:49.525Z,26.28
2022-09-07T14:40:23.846Z,26.53
2022-09-07T14:42:52.201Z,26.59
2022-09-07T14:45:18.601Z,26.51
2022-09-07T14:47:47.201Z,26.29
2022-09-07T14:50:24.532Z,26.04
2022-09-07T14:55:42.704Z,25.76
2022-09-07T14:58:15.178Z,25.58
2022-09-07T15:01:37.273Z,25.58
2022-09-07T15:03:57.086Z,25.74
2022-09-07T15:09:36.843Z,25.99
2022-09-07T15:12:15.454Z,26.03
2022-09-07T15:14:42.079Z,26.22
2022-09-07T15:17:48.314Z,26.28
2022-09-07T15:20:37.521Z,26.49
2022-09-07T15:23:15.525Z,26.87
2022-09-07T15:25:48.229Z,27.06
2022-09-07T15:33:59.955Z,26.00
2022-09-07T15:36:26.887Z,25.69
2022-09-07T15:39:01.051Z,25.53
2022-09-07T15:41:29.220Z,25.39
2022-09-07T15:43:56.856Z,25.39
2022-09-07T15:46:25.074Z,25.54
2022-09-07T15:48:53.977Z,25.79
2022-09-07T15:54:13.802Z,25.76
2022-09-07T15:57:48.109Z,25.56
2022-09-07T15:59:31.118Z,25.51
2022-09-07T16:01:58.506Z,25.52
2022-09-07T16:04:25.374Z,25.43
2022-09-07T16:06:52.035Z,25.41
2022-09-07T16:09:21.692Z,25.30
2022-09-07T16:11:50.146Z,25.06
2022-09-07T16:14:17.718Z,24.90
2022-09-07T16:19:34.999Z,24.70
2022-09-07T16:22:03.060Z,24.59
2022-09-07T16:24:29.782Z,24.48
2022-09-07T16:26:56.300Z,24.36
2022-09-07T16:29:22.667Z,24.29
2022-09-07T16:34:35.499Z,24.14
2022-09-07T16:37:02.100Z,24.22
2022-09-07T16:39:32.054Z,24.16
2022-09-07T16:42:00.081Z,24.21
2022-09-07T16:44:26.597Z,24.31
2022-09-07T16:46:53.158Z,24.30
2022-09-07T16:49:19.629Z,24.52
2022-09-07T16:51:46.161Z,24.67
2022-09-07T16:54:13.818Z,24.83
2022-09-07T16:56:40.425Z,24.94
2022-09-07T16:59:09.583Z,25.07
2022-09-07T17:01:40.309Z,25.11
2022-09-07T17:04:10.858Z,25.02
2022-09-07T17:06:38.652Z,24.96
2022-09-07T17:09:05.460Z,24.95
2022-09-07T17:11:34.743Z,24.78
2022-09-07T17:14:01.836Z,24.61
2022-09-07T17:16:34.397Z,24.41
2022-09-07T17:21:51.889Z,23.96
2022-09-07T17:24:19.766Z,23.61
2022-09-07T17:26:46.490Z,23.33
2022-09-07T17:29:13.461Z,23.08
2022-09-07T17:34:26.588Z,22.65
2022-09-07T17:36:53.163Z,22.41
2022-09-07T17:39:20.030Z,22.21
2022-09-07T17:41:48.596Z,22.07
2022-09-07T17:44:15.546Z,21.95
2022-09-07T17:46:42.321Z,21.91
2022-09-07T17:49:12.060Z,21.82
2022-09-07T17:51:38.787Z,21.68
2022-09-07T17:54:10.732Z,21.61
2022-09-07T17:56:38.908Z,21.50
2022-09-07T18:01:53.944Z,21.30
2022-09-07T18:04:21.516Z,21.15
2022-09-07T18:06:48.373Z,21.00
2022-09-07T18:09:15.704Z,20.84
2022-09-07T18:11:45.560Z,20.73
2022-09-07T18:14:14.238Z,20.56
2022-09-07T18:16:41.256Z,20.42
2022-09-07T18:19:08.575Z,20.29
2022-09-07T18:21:37.743Z,20.20
2022-09-07T18:24:13.493Z,20.15
2022-09-07T18:26:40.773Z,20.08
2022-09-07T18:29:18.717Z,20.08
2022-09-07T18:31:54.858Z,20.08
2022-09-07T18:34:21.597Z,20.07
2022-09-07T18:36:48.190Z,20.11
2022-09-07T18:39:15.026Z,20.13
2022-09-07T18:41:42.047Z,20.09
2022-09-07T18:46:55.481Z,20.16
2022-09-07T18:49:21.989Z,20.16
2022-09-07T18:54:34.795Z,20.01
2022-09-07T18:57:01.233Z,19.95
2022-09-07T18:59:29.789Z,19.92
2022-09-07T19:02:01.336Z,19.93
2022-09-07T19:07:17.663Z,19.75
2022-09-07T19:09:44.180Z,19.66
2022-09-07T19:12:10.556Z,19.58
2022-09-07T19:14:37.088Z,19.59
2022-09-07T19:17:03.563Z,19.53
2022-09-07T19:19:30.173Z,19.45
2022-09-07T19:21:57.718Z,19.37
2022-09-07T19:24:25.622Z,19.33
2022-09-07T19:26:55.728Z,19.25
2022-09-07T19:29:24.586Z,19.18
2022-09-07T19:32:04.862Z,19.12
2022-09-07T19:34:32.832Z,19.05
2022-09-07T19:36:59.411Z,18.98
2022-09-07T19:39:25.797Z,18.91
2022-09-07T19:41:52.392Z,18.85
2022-09-07T19:44:18.770Z,18.72
2022-09-07T19:46:45.243Z,18.73
2022-09-07T19:49:12.252Z,18.68
2022-09-07T19:51:40.150Z,18.69
2022-09-07T19:54:06.814Z,18.63
2022-09-07T19:56:33.269Z,18.58
2022-09-07T19:58:59.660Z,18.57
2022-09-07T20:01:28.209Z,18.55
2022-09-07T20:04:19.645Z,18.52
2022-09-07T20:06:48.029Z,18.46
2022-09-07T20:09:14.554Z,18.37
2022-09-07T20:11:46.082Z,18.29
2022-09-07T20:14:14.009Z,18.23
2022-09-07T20:16:41.503Z,18.17
2022-09-07T20:19:08.508Z,18.12
2022-09-07T20:21:36.850Z,18.08
2022-09-07T20:24:04.438Z,17.94
2022-09-07T20:26:32.219Z,17.86
2022-09-07T20:29:23.386Z,17.77
2022-09-07T20:31:46.198Z,17.66
2022-09-07T20:34:13.098Z,17.57
2022-09-07T20:36:39.957Z,17.51
2022-09-07T20:39:06.601Z,17.44
2022-09-07T20:41:33.962Z,17.41
2022-09-07T20:44:03.590Z,17.35
2022-09-07T20:46:30.764Z,17.22
2022-09-07T20:48:58.751Z,17.16
2022-09-07T20:51:25.643Z,17.13
2022-09-07T20:53:53.561Z,17.06
2022-09-07T20:56:25.743Z,16.93
2022-09-07T20:59:00.499Z,16.89
2022-09-07T21:01:29.647Z,16.83
2022-09-07T21:03:58.334Z,16.82
2022-09-07T21:06:26.180Z,16.83
2022-09-07T21:08:53.060Z,16.81
2022-09-07T21:11:22.377Z,16.79
2022-09-07T21:13:56.033Z,16.73
2022-09-07T21:16:22.907Z,16.68
2022-09-07T21:18:54.363Z,16.61
2022-09-07T21:21:21.805Z,16.60
2022-09-07T21:23:48.546Z,16.51
2022-09-07T21:26:19.713Z,16.40
2022-09-07T21:28:46.257Z,16.39
2022-09-07T21:31:12.767Z,16.32
2022-09-07T21:33:39.312Z,16.32
2022-09-07T21:36:10.843Z,16.37
2022-09-07T21:38:38.872Z,16.29
2022-09-07T21:41:13.648Z,16.33
2022-09-07T21:43:41.698Z,16.30
2022-09-07T21:46:16.630Z,16.31
2022-09-07T21:48:43.755Z,16.33
2022-09-07T21:51:12.651Z,16.31
2022-09-07T21:53:39.076Z,16.35
2022-09-07T21:56:08.511Z,16.33
2022-09-07T21:58:35.797Z,16.34
2022-09-07T22:01:14.319Z,16.40
2022-09-07T22:03:41.077Z,16.47
2022-09-07T22:06:08.879Z,16.54
2022-09-07T22:08:37.388Z,16.55
2022-09-07T22:11:09.395Z,16.56
2022-09-07T22:13:36.393Z,16.57
2022-09-07T22:16:03.868Z,16.61
2022-09-07T22:18:30.950Z,16.61
2022-09-07T22:21:07.600Z,16.61
2022-09-07T22:23:37.291Z,16.56
2022-09-07T22:26:03.863Z,16.56
2022-09-07T22:28:31.505Z,16.55
2022-09-07T22:31:18.742Z,16.46
2022-09-07T22:33:46.451Z,16.44
2022-09-07T22:36:16.172Z,16.44
2022-09-07T22:38:44.335Z,16.44
2022-09-07T22:41:13.811Z,16.46
2022-09-07T22:43:40.943Z,16.51
2022-09-07T22:46:07.886Z,16.53
2022-09-07T22:48:34.441Z,16.47
2022-09-07T22:51:03.960Z,16.36
2022-09-07T22:53:32.907Z,16.22
2022-09-07T22:56:00.176Z,16.23
2022-09-07T22:58:28.944Z,16.18
2022-09-07T23:01:01.211Z,16.19
2022-09-07T23:03:29.261Z,16.18
2022-09-07T23:05:56.980Z,16.19
2022-09-07T23:08:25.237Z,16.19
2022-09-07T23:10:52.902Z,16.26
2022-09-07T23:13:20.522Z,16.22
2022-09-07T23:15:48.091Z,16.21
2022-09-07T23:18:19.868Z,16.19
2022-09-07T23:20:46.556Z,16.16
2022-09-07T23:23:15.984Z,16.12
2022-09-07T23:25:42.842Z,16.00
2022-09-07T23:28:12.265Z,16.00
2022-09-07T23:30:42.408Z,15.92
2022-09-07T23:33:08.779Z,15.87
2022-09-07T23:35:35.270Z,15.88
2022-09-07T23:38:01.757Z,15.87
2022-09-07T23:40:30.277Z,15.94
2022-09-07T23:42:56.786Z,15.92
2022-09-07T23:45:23.641Z,15.92
2022-09-07T23:47:50.277Z,15.91
2022-09-07T23:50:18.079Z,15.90
2022-09-07T23:52:44.568Z,15.85
2022-09-07T23:55:11.747Z,15.78
2022-09-07T23:57:38.622Z,15.74
